createdAt,value
2023-04-24T00:00:24.644Z,79.93
2023-04-24T00:02:52.250Z,79.50
2023-04-24T00:05:20.934Z,80.65
2023-04-24T00:07:48.118Z,80.72
2023-04-24T00:10:15.672Z,80.43
2023-04-24T00:12:42.877Z,80.55
2023-04-24T00:15:10.609Z,80.28
2023-04-24T00:17:38.300Z,81.22
2023-04-24T00:20:07.874Z,81.22
2023-04-24T00:22:35.198Z,81.05
2023-04-24T00:25:02.499Z,81.95
2023-04-24T00:27:29.782Z,81.50
2023-04-24T00:29:57.274Z,81.13
2023-04-24T00:32:24.750Z,80.81
2023-04-24T00:34:51.947Z,81.71
2023-04-24T00:37:19.132Z,82.70
2023-04-24T00:39:46.393Z,82.65
2023-04-24T00:42:13.659Z,80.92
2023-04-24T00:44:41.050Z,81.54
2023-04-24T00:47:08.485Z,82.05
2023-04-24T00:49:36.467Z,82.43
2023-04-24T00:52:08.539Z,83.68
2023-04-24T00:54:36.519Z,81.33
2023-04-24T00:57:04.204Z,81.42
2023-04-24T00:59:31.873Z,82.36
2023-04-24T01:01:59.443Z,83.85
2023-04-24T01:04:27.324Z,84.66
2023-04-24T01:06:56.340Z,83.61
2023-04-24T01:09:24.721Z,83.57
2023-04-24T01:11:52.215Z,82.80
2023-04-24T01:14:19.533Z,82.48
2023-04-24T01:16:47.600Z,83.45
2023-04-24T01:19:16.493Z,81.86
2023-04-24T01:21:44.283Z,82.49
2023-04-24T01:24:11.784Z,82.92
2023-04-24T01:26:39.398Z,82.36
2023-04-24T01:29:06.896Z,82.10
2023-04-24T01:31:35.563Z,82.26
2023-04-24T01:34:03.694Z,83.08
2023-04-24T01:36:32.632Z,83.34
2023-04-24T01:38:59.944Z,82.01
2023-04-24T01:41:27.587Z,81.99
2023-04-24T01:43:55.033Z,82.57
2023-04-24T01:46:23.671Z,82.45
2023-04-24T01:48:52.231Z,81.98
2023-04-24T01:51:20.708Z,83.02
2023-04-24T01:53:48.009Z,81.77
2023-04-24T01:56:15.328Z,81.70
2023-04-24T01:58:42.810Z,81.04
2023-04-24T02:01:10.246Z,81.30
2023-04-24T02:03:37.778Z,81.55
2023-04-24T02:06:05.338Z,81.91
2023-04-24T02:08:32.692Z,81.79
2023-04-24T02:10:59.871Z,82.30
2023-04-24T02:13:27.127Z,82.06
2023-04-24T02:15:54.313Z,82.67
2023-04-24T02:18:21.687Z,81.99
2023-04-24T02:20:48.933Z,81.81
2023-04-24T02:23:16.230Z,80.61
2023-04-24T02:25:43.512Z,82.50
2023-04-24T02:28:10.806Z,80.87
2023-04-24T02:30:38.005Z,81.25
2023-04-24T02:33:05.474Z,81.60
2023-04-24T02:35:32.933Z,81.01
2023-04-24T02:38:00.418Z,81.46
2023-04-24T02:40:27.652Z,81.43
2023-04-24T02:42:54.894Z,82.02
2023-04-24T02:45:22.204Z,81.95
2023-04-24T02:47:49.523Z,81.67
2023-04-24T02:50:16.791Z,82.28
2023-04-24T02:52:44.247Z,83.26
2023-04-24T02:55:11.592Z,82.94
2023-04-24T02:57:38.964Z,83.03
2023-04-24T03:00:08.221Z,82.49
2023-04-24T03:02:35.732Z,83.68
2023-04-24T03:05:03.457Z,82.40
2023-04-24T03:07:30.750Z,83.31
2023-04-24T03:10:00.431Z,83.60
2023-04-24T03:12:27.674Z,83.36
2023-04-24T03:14:54.866Z,84.82
2023-04-24T03:17:22.214Z,83.76
2023-04-24T03:19:49.629Z,83.93
2023-04-24T03:22:17.079Z,82.57
2023-04-24T03:24:44.298Z,84.03
2023-04-24T03:27:11.826Z,82.98
2023-04-24T03:29:56.623Z,81.75
2023-04-24T03:32:30.334Z,83.14
2023-04-24T03:34:57.622Z,82.99
2023-04-24T03:37:25.109Z,81.54
2023-04-24T03:40:03.387Z,82.83
2023-04-24T03:42:30.924Z,82.56
2023-04-24T03:44:58.162Z,82.12
2023-04-24T03:47:31.059Z,82.26
2023-04-24T03:50:01.908Z,82.88
2023-04-24T03:52:29.624Z,82.19
2023-04-24T03:54:56.950Z,81.62
2023-04-24T03:57:25.875Z,81.54
2023-04-24T04:00:22.600Z,82.74
2023-04-24T04:03:02.383Z,82.38
2023-04-24T04:05:30.535Z,82.71
2023-04-24T04:07:57.991Z,83.67
2023-04-24T04:10:25.456Z,84.32
2023-04-24T04:12:52.642Z,83.91
2023-04-24T04:15:20.021Z,83.02
2023-04-24T04:17:47.962Z,83.63
2023-04-24T04:20:15.213Z,82.86
2023-04-24T04:22:44.492Z,83.39
2023-04-24T04:25:15.958Z,83.99
2023-04-24T04:27:44.134Z,84.34
2023-04-24T04:30:13.820Z,84.37
2023-04-24T04:32:51.218Z,83.85
2023-04-24T04:35:18.781Z,84.43
2023-04-24T04:37:46.808Z,84.63
2023-04-24T04:40:28.183Z,83.71
2023-04-24T04:43:01.482Z,84.09
2023-04-24T04:45:35.522Z,84.44
2023-04-24T04:48:21.528Z,83.67
2023-04-24T04:50:48.863Z,83.34
2023-04-24T04:53:16.282Z,82.93
2023-04-24T04:55:43.702Z,83.42
2023-04-24T04:58:15.067Z,82.03
2023-04-24T05:00:42.520Z,83.11
2023-04-24T05:03:21.199Z,83.12
2023-04-24T05:05:54.863Z,83.47
2023-04-24T05:10:52.592Z,84.01
2023-04-24T05:13:28.306Z,82.97
2023-04-24T05:16:06.897Z,84.26
2023-04-24T05:18:35.337Z,84.55
2023-04-24T05:21:03.006Z,83.88
2023-04-24T05:23:30.378Z,83.67
2023-04-24T05:25:58.676Z,84.81
2023-04-24T05:28:29.358Z,85.47
2023-04-24T05:31:05.717Z,86.79
2023-04-24T05:33:33.141Z,87.41
2023-04-24T05:36:00.563Z,88.13
2023-04-24T05:38:28.417Z,85.58
2023-04-24T05:40:55.830Z,86.60
2023-04-24T05:43:23.109Z,87.44
2023-04-24T05:45:50.835Z,86.27
2023-04-24T05:48:19.162Z,86.70
2023-04-24T05:50:48.294Z,86.49
2023-04-24T05:53:15.666Z,86.15
2023-04-24T05:55:43.044Z,87.19
2023-04-24T05:58:10.477Z,85.55
2023-04-24T06:00:40.235Z,85.09
2023-04-24T06:03:10.221Z,85.77
2023-04-24T06:05:38.287Z,85.62
2023-04-24T06:08:05.732Z,84.86
2023-04-24T06:10:37.065Z,85.32
2023-04-24T06:13:05.592Z,86.37
2023-04-24T06:15:34.493Z,85.60
2023-04-24T06:18:08.593Z,84.92
2023-04-24T06:20:37.248Z,84.59
2023-04-24T06:23:04.654Z,84.19
2023-04-24T06:25:34.219Z,84.76
2023-04-24T06:28:02.622Z,85.69
2023-04-24T06:30:31.416Z,85.46
2023-04-24T06:33:03.102Z,85.62
2023-04-24T06:35:39.293Z,84.64
2023-04-24T06:38:07.002Z,85.26
2023-04-24T06:40:34.552Z,85.49
2023-04-24T06:43:03.778Z,85.11
2023-04-24T06:45:31.170Z,83.55
2023-04-24T06:47:58.557Z,84.79
2023-04-24T06:50:26.139Z,86.53
2023-04-24T06:52:53.684Z,76.63
2023-04-24T06:55:20.934Z,74.15
2023-04-24T06:57:48.231Z,76.34
2023-04-24T07:00:17.089Z,78.24
2023-04-24T07:02:45.059Z,78.29
2023-04-24T07:05:13.772Z,79.70
2023-04-24T07:07:41.281Z,80.25
2023-04-24T07:10:09.588Z,82.90
2023-04-24T07:12:37.081Z,82.08
2023-04-24T07:15:06.444Z,79.28
2023-04-24T07:17:33.661Z,80.05
2023-04-24T07:20:01.031Z,79.04
2023-04-24T07:22:28.306Z,79.11
2023-04-24T07:24:55.820Z,79.47
2023-04-24T07:27:23.123Z,78.98
2023-04-24T07:29:51.694Z,78.82
2023-04-24T07:32:19.209Z,77.68
2023-04-24T07:34:46.927Z,77.77
2023-04-24T07:37:14.277Z,79.06
2023-04-24T07:39:42.448Z,79.02
2023-04-24T07:42:10.047Z,78.17
2023-04-24T07:44:37.552Z,76.66
2023-04-24T07:47:04.849Z,77.49
2023-04-24T07:49:32.199Z,78.68
2023-04-24T07:52:01.459Z,78.28
2023-04-24T07:54:29.623Z,76.33
2023-04-24T07:56:56.990Z,76.83
2023-04-24T07:59:24.263Z,76.61
2023-04-24T08:01:51.704Z,77.59
2023-04-24T08:04:19.552Z,77.54
2023-04-24T08:06:48.635Z,77.60
2023-04-24T08:09:16.112Z,78.80
2023-04-24T08:11:43.391Z,78.19
2023-04-24T08:14:10.808Z,77.45
2023-04-24T08:16:38.221Z,75.85
2023-04-24T08:19:05.474Z,75.90
2023-04-24T08:21:35.877Z,74.93
2023-04-24T08:24:06.189Z,75.51
2023-04-24T08:26:33.487Z,74.79
2023-04-24T08:29:00.780Z,74.31
2023-04-24T08:31:28.126Z,73.22
2023-04-24T08:33:55.440Z,73.34
2023-04-24T08:36:23.817Z,73.44
2023-04-24T08:38:54.095Z,71.93
2023-04-24T08:41:22.299Z,71.24
2023-04-24T08:43:50.871Z,70.05
2023-04-24T08:46:20.092Z,73.04
2023-04-24T08:48:47.891Z,73.79
2023-04-24T08:51:15.253Z,72.70
2023-04-24T08:53:42.664Z,70.72
2023-04-24T08:56:10.316Z,70.39
2023-04-24T08:58:38.201Z,70.85
2023-04-24T09:01:05.919Z,69.88
2023-04-24T09:03:34.651Z,68.56
2023-04-24T09:06:02.334Z,68.72
2023-04-24T09:08:30.869Z,67.13
2023-04-24T09:10:59.568Z,66.76
2023-04-24T09:13:27.605Z,70.04
2023-04-24T09:15:55.329Z,70.38
2023-04-24T09:18:22.758Z,69.73
2023-04-24T09:21:09.388Z,69.19
2023-04-24T09:23:36.938Z,68.62
2023-04-24T09:26:07.610Z,69.19
2023-04-24T09:28:40.558Z,69.55
2023-04-24T09:31:16.903Z,69.80
2023-04-24T09:33:58.446Z,70.86
2023-04-24T09:36:42.097Z,69.91
2023-04-24T09:39:14.769Z,69.02
2023-04-24T09:41:52.626Z,67.26
2023-04-24T09:44:24.267Z,68.08
2023-04-24T09:46:56.111Z,68.61
2023-04-24T09:49:25.768Z,68.40
2023-04-24T09:51:54.065Z,66.95
2023-04-24T09:54:22.771Z,67.16
2023-04-24T09:56:51.710Z,68.70
2023-04-24T09:59:20.420Z,68.82
2023-04-24T10:01:49.668Z,68.47
2023-04-24T10:04:25.485Z,67.56
2023-04-24T10:06:54.756Z,66.91
2023-04-24T10:09:27.404Z,66.55
2023-04-24T10:11:55.983Z,65.57
2023-04-24T10:14:25.148Z,64.13
2023-04-24T10:16:55.158Z,63.81
2023-04-24T10:19:24.046Z,64.44
2023-04-24T10:21:51.302Z,62.38
2023-04-24T10:24:21.582Z,62.89
2023-04-24T10:26:49.442Z,63.02
2023-04-24T10:29:20.096Z,62.76
2023-04-24T10:31:48.015Z,63.07
2023-04-24T10:34:17.506Z,64.26
2023-04-24T10:36:50.955Z,63.35
2023-04-24T10:39:18.787Z,62.61
2023-04-24T10:41:47.466Z,62.32
2023-04-24T10:44:16.761Z,61.97
2023-04-24T10:46:46.482Z,61.55
2023-04-24T10:49:13.918Z,61.39
2023-04-24T10:51:49.092Z,60.29
2023-04-24T10:54:30.926Z,58.66
2023-04-24T10:57:23.325Z,58.63
2023-04-24T10:59:52.086Z,57.32
2023-04-24T11:02:19.721Z,59.53
2023-04-24T11:04:47.444Z,59.81
2023-04-24T11:07:14.898Z,58.32
2023-04-24T11:09:44.260Z,59.83
2023-04-24T11:12:14.954Z,60.11
2023-04-24T11:15:11.726Z,59.82
2023-04-24T11:17:40.925Z,59.50
2023-04-24T11:20:25.590Z,59.91
2023-04-24T11:22:56.287Z,59.06
2023-04-24T11:25:24.069Z,57.11
2023-04-24T11:27:51.562Z,55.88
2023-04-24T11:30:20.686Z,56.12
2023-04-24T11:32:54.205Z,56.66
2023-04-24T11:35:26.039Z,56.18
2023-04-24T11:40:25.942Z,55.61
2023-04-24T11:42:56.427Z,55.92
2023-04-24T11:45:28.322Z,55.27
2023-04-24T11:47:55.746Z,54.29
2023-04-24T11:50:24.570Z,53.07
2023-04-24T11:52:52.057Z,53.22
2023-04-24T11:55:19.814Z,52.42
2023-04-24T11:57:51.458Z,51.96
2023-04-24T12:00:23.775Z,51.28
2023-04-24T12:02:51.711Z,49.17
2023-04-24T12:05:28.101Z,49.80
2023-04-24T12:07:55.849Z,49.84
2023-04-24T12:10:24.686Z,50.21
2023-04-24T12:12:52.766Z,49.96
2023-04-24T12:15:21.838Z,51.34
2023-04-24T12:17:49.450Z,50.61
2023-04-24T12:20:19.447Z,49.66
2023-04-24T12:22:55.886Z,49.68
2023-04-24T12:25:28.123Z,49.56
2023-04-24T12:27:56.403Z,49.38
2023-04-24T12:30:29.446Z,48.73
2023-04-24T12:32:59.148Z,48.72
2023-04-24T12:35:28.857Z,49.95
2023-04-24T12:37:56.332Z,50.76
2023-04-24T12:40:26.426Z,51.84
2023-04-24T12:42:54.397Z,51.81
2023-04-24T12:45:24.981Z,52.12
2023-04-24T12:47:52.319Z,52.80
2023-04-24T12:50:19.919Z,52.31
2023-04-24T12:52:47.422Z,52.17
2023-04-24T12:55:14.790Z,52.20
2023-04-24T12:57:42.205Z,51.69
2023-04-24T13:00:10.134Z,51.22
2023-04-24T13:02:37.803Z,50.43
2023-04-24T13:05:05.620Z,49.68
2023-04-24T13:07:32.825Z,49.33
2023-04-24T13:10:00.156Z,48.30
2023-04-24T13:12:27.647Z,49.11
2023-04-24T13:14:55.107Z,49.91
2023-04-24T13:17:22.874Z,50.20
2023-04-24T13:19:51.247Z,48.83
2023-04-24T13:22:21.811Z,47.93
2023-04-24T13:24:50.085Z,47.35
2023-04-24T13:27:17.801Z,47.06
2023-04-24T13:29:45.074Z,47.32
2023-04-24T13:32:12.682Z,46.41
2023-04-24T13:34:40.053Z,46.64
2023-04-24T13:37:09.052Z,46.83
2023-04-24T13:39:36.708Z,46.51
2023-04-24T13:42:05.054Z,46.87
2023-04-24T13:44:32.701Z,47.81
2023-04-24T13:47:00.051Z,47.71
2023-04-24T13:49:28.180Z,48.01
2023-04-24T13:51:56.755Z,47.20
2023-04-24T13:54:27.337Z,48.02
2023-04-24T13:56:54.731Z,47.57
2023-04-24T13:59:24.768Z,47.92
2023-04-24T14:01:52.155Z,46.32
2023-04-24T14:04:19.627Z,46.92
2023-04-24T14:06:47.037Z,46.21
2023-04-24T14:09:14.393Z,46.06
2023-04-24T14:11:41.953Z,45.52
2023-04-24T14:14:09.277Z,45.83
2023-04-24T14:16:36.864Z,46.20
2023-04-24T14:19:04.168Z,45.51
2023-04-24T14:21:31.730Z,46.53
2023-04-24T14:23:59.011Z,46.15
2023-04-24T14:26:26.296Z,46.83
2023-04-24T14:29:01.105Z,45.55
2023-04-24T14:31:34.865Z,45.76
2023-04-24T14:34:02.165Z,45.48
2023-04-24T14:36:29.480Z,44.37
2023-04-24T14:38:56.813Z,45.07
2023-04-24T14:41:24.084Z,44.32
2023-04-24T14:43:51.507Z,43.48
2023-04-24T14:46:19.192Z,42.01
2023-04-24T14:48:46.727Z,41.04
2023-04-24T14:51:13.967Z,42.30
2023-04-24T14:53:41.688Z,42.61
2023-04-24T14:56:09.056Z,44.41
2023-04-24T14:58:36.435Z,43.30
2023-04-24T15:01:03.744Z,44.09
2023-04-24T15:03:32.228Z,45.21
2023-04-24T15:05:59.797Z,46.31
2023-04-24T15:08:27.004Z,47.67
2023-04-24T15:10:54.447Z,48.94
2023-04-24T15:13:21.757Z,51.07
2023-04-24T15:15:48.986Z,52.20
2023-04-24T15:18:16.275Z,54.67
2023-04-24T15:20:43.737Z,56.80
2023-04-24T15:23:11.307Z,56.00
2023-04-24T15:25:39.225Z,56.44
2023-04-24T15:28:06.984Z,56.49
2023-04-24T15:30:34.561Z,56.55
2023-04-24T15:33:02.859Z,56.49
2023-04-24T15:35:30.213Z,56.17
2023-04-24T15:37:57.678Z,55.77
2023-04-24T15:40:25.033Z,55.31
2023-04-24T15:42:52.355Z,54.15
2023-04-24T15:45:19.788Z,53.75
2023-04-24T15:47:47.655Z,53.24
2023-04-24T15:50:17.070Z,53.54
2023-04-24T15:52:44.574Z,53.97
2023-04-24T15:55:12.404Z,53.18
2023-04-24T15:57:40.478Z,52.48
2023-04-24T16:00:09.751Z,52.53
2023-04-24T16:02:40.396Z,52.62
2023-04-24T16:05:08.742Z,52.95
2023-04-24T16:07:37.644Z,52.57
2023-04-24T16:10:05.447Z,54.28
2023-04-24T16:12:32.746Z,54.36
2023-04-24T16:15:00.148Z,54.32
2023-04-24T16:17:27.412Z,54.36
2023-04-24T16:19:54.683Z,54.53
2023-04-24T16:22:22.222Z,54.63
2023-04-24T16:24:49.533Z,55.69
2023-04-24T16:27:16.831Z,55.11
2023-04-24T16:29:44.344Z,54.68
2023-04-24T16:32:11.614Z,56.21
2023-04-24T16:34:38.870Z,56.92
2023-04-24T16:37:06.800Z,56.61
2023-04-24T16:39:35.000Z,56.36
2023-04-24T16:42:02.540Z,56.67
2023-04-24T16:44:29.831Z,58.04
2023-04-24T16:46:57.430Z,57.96
2023-04-24T16:49:24.923Z,56.77
2023-04-24T16:51:52.048Z,56.78
2023-04-24T16:54:21.348Z,56.31
2023-04-24T16:56:49.196Z,58.69
2023-04-24T16:59:16.443Z,60.57
2023-04-24T17:01:43.638Z,59.69
2023-04-24T17:04:11.306Z,59.61
2023-04-24T17:06:38.589Z,59.92
2023-04-24T17:09:05.971Z,58.62
2023-04-24T17:11:33.173Z,59.01
2023-04-24T17:14:00.823Z,60.51
2023-04-24T17:16:29.001Z,61.32
2023-04-24T17:18:56.317Z,60.24
2023-04-24T17:21:23.697Z,58.54
2023-04-24T17:23:51.116Z,58.03
2023-04-24T17:26:18.406Z,58.95
2023-04-24T17:28:46.174Z,57.54
2023-04-24T17:31:13.747Z,57.04
2023-04-24T17:33:41.254Z,56.93
2023-04-24T17:36:08.649Z,56.97
2023-04-24T17:38:36.532Z,56.64
2023-04-24T17:41:03.885Z,57.08
2023-04-24T17:43:31.201Z,56.55
2023-04-24T17:46:01.926Z,56.98
2023-04-24T17:48:29.372Z,57.01
2023-04-24T17:50:56.914Z,55.96
2023-04-24T17:53:24.256Z,57.09
2023-04-24T17:55:51.564Z,57.39
2023-04-24T17:58:19.378Z,56.61
2023-04-24T18:00:46.971Z,56.66
2023-04-24T18:03:14.458Z,56.63
2023-04-24T18:05:41.888Z,56.69
2023-04-24T18:08:09.198Z,56.66
2023-04-24T18:10:36.686Z,56.43
2023-04-24T18:13:05.232Z,56.78
2023-04-24T18:15:33.085Z,56.83
2023-04-24T18:18:00.447Z,57.10
2023-04-24T18:20:27.770Z,58.95
2023-04-24T18:25:27.023Z,62.22
2023-04-24T18:27:55.893Z,63.39
2023-04-24T18:30:24.480Z,63.79
2023-04-24T18:32:53.377Z,65.26
2023-04-24T18:35:21.713Z,66.49
2023-04-24T18:37:49.869Z,66.84
2023-04-24T18:40:17.619Z,66.16
2023-04-24T18:42:45.055Z,66.79
2023-04-24T18:45:14.858Z,67.36
2023-04-24T18:47:43.268Z,66.12
2023-04-24T18:50:11.174Z,65.83
2023-04-24T18:52:38.643Z,65.25
2023-04-24T18:55:07.082Z,64.76
2023-04-24T18:57:34.627Z,64.41
2023-04-24T19:00:02.101Z,64.72
2023-04-24T19:02:29.628Z,64.94
2023-04-24T19:04:57.009Z,66.52
2023-04-24T19:07:24.440Z,66.47
2023-04-24T19:09:51.879Z,65.61
2023-04-24T19:12:20.966Z,65.88
2023-04-24T19:14:49.608Z,66.44
2023-04-24T19:17:23.308Z,65.83
2023-04-24T19:19:51.246Z,65.82
2023-04-24T19:22:20.454Z,68.93
2023-04-24T19:24:47.870Z,71.07
2023-04-24T19:27:15.359Z,72.20
2023-04-24T19:29:42.962Z,72.39
2023-04-24T19:32:10.386Z,73.38
2023-04-24T19:34:39.729Z,73.23
2023-04-24T19:37:08.072Z,73.73
2023-04-24T19:39:35.280Z,73.35
2023-04-24T19:42:07.105Z,73.59
2023-04-24T19:44:35.037Z,72.05
2023-04-24T19:47:02.298Z,71.72
2023-04-24T19:49:29.638Z,71.87
2023-04-24T19:51:56.970Z,72.55
2023-04-24T19:54:24.714Z,72.82
2023-04-24T19:56:52.062Z,72.67
2023-04-24T19:59:19.504Z,72.06
2023-04-24T20:01:47.177Z,73.32
2023-04-24T20:04:14.553Z,73.67
2023-04-24T20:06:41.873Z,74.85
2023-04-24T20:09:09.966Z,76.48
2023-04-24T20:11:37.302Z,76.87
2023-04-24T20:14:04.775Z,77.88
2023-04-24T20:16:32.226Z,78.47
2023-04-24T20:18:59.676Z,78.39
2023-04-24T20:21:26.915Z,78.70
2023-04-24T20:23:54.226Z,80.80
2023-04-24T20:26:21.616Z,79.63
2023-04-24T20:28:49.216Z,79.70
2023-04-24T20:31:16.921Z,81.00
2023-04-24T20:33:45.584Z,83.00
2023-04-24T20:36:12.936Z,83.19
2023-04-24T20:38:40.171Z,82.81
2023-04-24T20:41:08.887Z,83.32
2023-04-24T20:43:36.545Z,83.21
2023-04-24T20:46:03.882Z,83.45
2023-04-24T20:48:31.491Z,82.89
2023-04-24T20:50:59.012Z,83.27
2023-04-24T20:53:26.320Z,82.96
2023-04-24T20:55:53.614Z,81.74
2023-04-24T20:58:22.064Z,81.28
2023-04-24T21:00:50.127Z,80.12
2023-04-24T21:03:18.918Z,78.90
2023-04-24T21:05:46.398Z,78.96
2023-04-24T21:08:13.904Z,79.71
2023-04-24T21:10:41.211Z,80.22
2023-04-24T21:13:08.900Z,80.01
2023-04-24T21:15:36.282Z,80.18
2023-04-24T21:18:04.181Z,79.62
2023-04-24T21:20:32.019Z,79.06
2023-04-24T21:22:59.243Z,79.34
2023-04-24T21:25:26.806Z,78.98
2023-04-24T21:27:54.337Z,77.60
2023-04-24T21:30:22.136Z,79.15
2023-04-24T21:32:49.464Z,79.05
2023-04-24T21:35:16.821Z,79.10
2023-04-24T21:37:44.294Z,80.21
2023-04-24T21:40:11.750Z,81.34
2023-04-24T21:42:39.610Z,80.51
2023-04-24T21:45:07.381Z,79.96
2023-04-24T21:47:34.726Z,79.81
2023-04-24T21:50:02.207Z,79.67
2023-04-24T21:52:29.447Z,80.71
2023-04-24T21:54:56.863Z,80.47
2023-04-24T21:57:24.165Z,80.69
2023-04-24T21:59:51.736Z,79.72
2023-04-24T22:02:19.160Z,80.44
2023-04-24T22:04:46.887Z,80.93
2023-04-24T22:07:14.977Z,80.32
2023-04-24T22:09:42.273Z,81.62
2023-04-24T22:12:09.924Z,80.20
2023-04-24T22:14:37.244Z,80.04
2023-04-24T22:17:04.902Z,81.02
2023-04-24T22:19:32.218Z,82.49
2023-04-24T22:21:59.518Z,82.76
2023-04-24T22:24:26.921Z,84.25
2023-04-24T22:26:54.159Z,83.75
2023-04-24T22:29:21.562Z,83.30
2023-04-24T22:31:49.284Z,82.49
2023-04-24T22:34:17.128Z,82.83
2023-04-24T22:36:44.422Z,83.64
2023-04-24T22:39:15.673Z,84.28
2023-04-24T22:41:43.247Z,82.87
2023-04-24T22:44:11.044Z,82.08
2023-04-24T22:46:38.414Z,83.52
2023-04-24T22:49:05.752Z,85.17
2023-04-24T22:51:35.795Z,85.57
2023-04-24T22:54:03.824Z,85.64
2023-04-24T22:56:32.201Z,85.22
2023-04-24T22:58:59.937Z,85.00
2023-04-24T23:01:27.385Z,85.64
2023-04-24T23:03:55.100Z,84.10
2023-04-24T23:06:22.504Z,83.74
2023-04-24T23:08:49.784Z,82.74
2023-04-24T23:11:17.385Z,81.52
2023-04-24T23:13:44.684Z,80.39
2023-04-24T23:16:11.909Z,80.38
2023-04-24T23:18:39.333Z,80.85
2023-04-24T23:21:06.715Z,80.82
2023-04-24T23:23:34.045Z,80.69
2023-04-24T23:26:01.459Z,81.00
2023-04-24T23:28:28.671Z,81.36
2023-04-24T23:30:56.163Z,80.59
2023-04-24T23:33:23.516Z,81.47
2023-04-24T23:35:51.218Z,81.47
2023-04-24T23:38:18.457Z,81.06
2023-04-24T23:40:45.872Z,80.06
2023-04-24T23:43:13.164Z,81.35
2023-04-24T23:45:40.560Z,81.76
2023-04-24T23:48:07.967Z,81.38
2023-04-24T23:50:35.394Z,81.81
2023-04-24T23:53:02.705Z,82.15
2023-04-24T23:55:30.009Z,82.02
2023-04-24T23:57:57.423Z,82.63
